Gravelly, Arkansas
Current Conditions -  °F | °C
As of 3:53 AM on Thursday 27 Nov 2014 (Local Time) from KMWT Reporting Station
Clear Clear  
Wind Chill: -1°   Ceiling: Unl
Heat Index:   Visibility: 10mi
Dew Point: -4°   Wind: 6mph
Humidity: 67%   Direction: 320°NW
Pressure: 30.37"   Gusts: NA
Location:  34.88°N, 93.69°W
Report Text: KMWT 270953Z AUTO 32005KT 10SM CLR 02/M04 A3037 RMK AO2 SLP291 T00171039
Loading
Personal Weather Stations






























Interactive Weather Map New forecast layout! Learn more

10-Day Weather Forecast

Advertisements
Track Severe Weather on mobile